TYA340 UNNT-UNKL
Flight info
| Callsign | TYA340 |
|---|---|
| Flight time | 1h 7m |
| Altitude | 37000 |
| Route | OGATI1K/25 K0830F370 OGAT1K OGATI A308 RISPA A366 KESED A309 ROTLI A300 RANET RANE2R UNKL/11 |
| Aircraft | B738/M-SD/S |
Departure
| Time | 2026-05-05 15:49 |
|---|---|
| Airport | Novosibirsk Tolmachevo Airport (UNNT) |
Arrival
| Time | 2026-05-05 16:56 |
|---|---|
| Airport | Krasnoyarsk International Airport (UNKL) |
| Time | Latitude | Longitude | Altitude | Speed | Heading |
|---|---|---|---|---|---|
| 2026-05-05 15:43 | 55.00997 | 82.65994 | 356 ft | 0 kts | 171° |
| 2026-05-05 15:45 | 55.00990 | 82.65995 | 356 ft | 2 kts | 171° |
| 2026-05-05 15:45 | 55.00965 | 82.66008 | 357 ft | 4 kts | 145° |
| 2026-05-05 15:45 | 55.00957 | 82.66086 | 357 ft | 10 kts | 81° |
| 2026-05-05 15:46 | 55.00969 | 82.66212 | 356 ft | 6 kts | 81° |
| 2026-05-05 15:46 | 55.00998 | 82.66302 | 356 ft | 12 kts | 52° |
| 2026-05-05 15:46 | 55.01043 | 82.66478 | 356 ft | 20 kts | 69° |
| 2026-05-05 15:46 | 55.01096 | 82.66752 | 354 ft | 26 kts | 83° |
| 2026-05-05 15:47 | 55.01086 | 82.67058 | 356 ft | 25 kts | 81° |
| 2026-05-05 15:47 | 55.01106 | 82.67263 | 358 ft | 24 kts | 84° |
| 2026-05-05 15:47 | 55.01211 | 82.67555 | 358 ft | 24 kts | 31° |
| 2026-05-05 15:47 | 55.01349 | 82.67697 | 356 ft | 16 kts | 31° |
| 2026-05-05 15:48 | 55.01360 | 82.67709 | 356 ft | 0 kts | 31° |
| 2026-05-05 15:48 | 55.01363 | 82.67713 | 356 ft | 3 kts | 31° |
| 2026-05-05 15:48 | 55.01405 | 82.67757 | 356 ft | 10 kts | 31° |
| 2026-05-05 15:48 | 55.01482 | 82.67710 | 356 ft | 17 kts | 279° |
| 2026-05-05 15:49 | 55.01454 | 82.67355 | 356 ft | 64 kts | 261° |
| 2026-05-05 15:49 | 55.01032 | 82.62472 | 1913 ft | 175 kts | 263° |
| 2026-05-05 15:50 | 55.00850 | 82.60359 | 2733 ft | 184 kts | 264° |
| 2026-05-05 15:50 | 55.00651 | 82.58085 | 3029 ft | 202 kts | 264° |
| 2026-05-05 15:50 | 55.00437 | 82.55574 | 3827 ft | 215 kts | 264° |
| 2026-05-05 15:50 | 55.00240 | 82.53103 | 5055 ft | 207 kts | 269° |
| 2026-05-05 15:51 | 55.00574 | 82.50642 | 5818 ft | 223 kts | 298° |
| 2026-05-05 15:51 | 55.01638 | 82.48682 | 6808 ft | 233 kts | 319° |
| 2026-05-05 15:51 | 55.03071 | 82.47399 | 7851 ft | 242 kts | 336° |
| 2026-05-05 15:51 | 55.04778 | 82.47244 | 8850 ft | 257 kts | 2° |
| 2026-05-05 15:52 | 55.06524 | 82.48054 | 9790 ft | 265 kts | 9° |
| 2026-05-05 15:52 | 55.08266 | 82.49033 | 10727 ft | 267 kts | 9° |
| 2026-05-05 15:52 | 55.10007 | 82.50087 | 11618 ft | 274 kts | 15° |
| 2026-05-05 15:52 | 55.11669 | 82.51871 | 12495 ft | 289 kts | 35° |
| 2026-05-05 15:53 | 55.12859 | 82.54729 | 13343 ft | 306 kts | 63° |
| 2026-05-05 15:53 | 55.13416 | 82.58309 | 14176 ft | 312 kts | 76° |
| 2026-05-05 15:53 | 55.13534 | 82.62160 | 14923 ft | 321 kts | 97° |
| 2026-05-05 15:53 | 55.12841 | 82.65827 | 15652 ft | 324 kts | 121° |
| 2026-05-05 15:54 | 55.11541 | 82.68940 | 16363 ft | 323 kts | 139° |
| 2026-05-05 15:54 | 55.09727 | 82.71179 | 17086 ft | 314 kts | 164° |
| 2026-05-05 15:54 | 55.07667 | 82.72096 | 17767 ft | 309 kts | 178° |
| 2026-05-05 15:54 | 55.05545 | 82.72622 | 18438 ft | 311 kts | 180° |
| 2026-05-05 15:55 | 55.03389 | 82.73107 | 19126 ft | 314 kts | 180° |
| 2026-05-05 15:55 | 55.01182 | 82.73630 | 19777 ft | 319 kts | 179° |
| 2026-05-05 15:55 | 54.99002 | 82.74266 | 20430 ft | 324 kts | 174° |
| 2026-05-05 15:55 | 54.96810 | 82.75458 | 20994 ft | 337 kts | 162° |
| 2026-05-05 15:56 | 54.94771 | 82.77472 | 21631 ft | 346 kts | 149° |
| 2026-05-05 15:56 | 54.92949 | 82.80260 | 22197 ft | 355 kts | 136° |
| 2026-05-05 15:56 | 54.91380 | 82.83601 | 22650 ft | 365 kts | 127° |
| 2026-05-05 15:56 | 54.90096 | 82.87505 | 22911 ft | 381 kts | 114° |
| 2026-05-05 15:57 | 54.89229 | 82.91962 | 23151 ft | 395 kts | 102° |
| 2026-05-05 15:57 | 54.88852 | 82.96755 | 23385 ft | 407 kts | 90° |
| 2026-05-05 15:57 | 54.88980 | 83.01708 | 23616 ft | 418 kts | 79° |
| 2026-05-05 15:57 | 54.89443 | 83.06757 | 23792 ft | 432 kts | 76° |
| 2026-05-05 15:58 | 54.90023 | 83.11929 | 24016 ft | 445 kts | 75° |
| 2026-05-05 15:58 | 54.90614 | 83.17284 | 24222 ft | 459 kts | 76° |
| 2026-05-05 15:58 | 54.91190 | 83.22791 | 24442 ft | 472 kts | 76° |
| 2026-05-05 15:58 | 54.91768 | 83.28478 | 24892 ft | 479 kts | 77° |
| 2026-05-05 15:59 | 54.92139 | 83.34230 | 25525 ft | 484 kts | 83° |
| 2026-05-05 15:59 | 54.92188 | 83.40040 | 26016 ft | 491 kts | 89° |
| 2026-05-05 15:59 | 54.92014 | 83.45944 | 26581 ft | 495 kts | 91° |
| 2026-05-05 15:59 | 54.91724 | 83.51976 | 27145 ft | 499 kts | 93° |
| 2026-05-05 16:00 | 54.91391 | 83.57971 | 27700 ft | 502 kts | 93° |
| 2026-05-05 16:00 | 54.91047 | 83.63973 | 28201 ft | 506 kts | 92° |
| 2026-05-05 16:00 | 54.90704 | 83.70071 | 28676 ft | 510 kts | 93° |
| 2026-05-05 16:00 | 54.90371 | 83.76209 | 29194 ft | 512 kts | 93° |
| 2026-05-05 16:01 | 54.90052 | 83.82272 | 30010 ft | 507 kts | 92° |
| 2026-05-05 16:01 | 54.89735 | 83.88437 | 30714 ft | 505 kts | 92° |
| 2026-05-05 16:01 | 54.89434 | 83.94417 | 31314 ft | 504 kts | 92° |
| 2026-05-05 16:01 | 54.89130 | 84.00565 | 31877 ft | 504 kts | 91° |
| 2026-05-05 16:02 | 54.88832 | 84.06597 | 32419 ft | 503 kts | 91° |
| 2026-05-05 16:02 | 54.88530 | 84.12710 | 32959 ft | 503 kts | 91° |
| 2026-05-05 16:02 | 54.88227 | 84.18821 | 33478 ft | 502 kts | 91° |
| 2026-05-05 16:02 | 54.87925 | 84.24841 | 34000 ft | 501 kts | 90° |
| 2026-05-05 16:03 | 54.87617 | 84.30953 | 34505 ft | 501 kts | 90° |
| 2026-05-05 16:03 | 54.87314 | 84.36892 | 34982 ft | 499 kts | 90° |
| 2026-05-05 16:03 | 54.87002 | 84.42950 | 35410 ft | 498 kts | 90° |
| 2026-05-05 16:03 | 54.86694 | 84.48876 | 35839 ft | 496 kts | 90° |
| 2026-05-05 16:04 | 54.86380 | 84.54827 | 36292 ft | 493 kts | 91° |
| 2026-05-05 16:04 | 54.86062 | 84.60796 | 36620 ft | 493 kts | 91° |
| 2026-05-05 16:04 | 54.85745 | 84.66688 | 37000 ft | 493 kts | 91° |
| 2026-05-05 16:05 | 54.85116 | 84.78643 | 37017 ft | 506 kts | 91° |
| 2026-05-05 16:05 | 54.84482 | 84.90832 | 37019 ft | 509 kts | 91° |
| 2026-05-05 16:06 | 54.83834 | 85.03008 | 37013 ft | 510 kts | 91° |
| 2026-05-05 16:06 | 54.83225 | 85.15221 | 37019 ft | 507 kts | 88° |
| 2026-05-05 16:07 | 54.84010 | 85.27088 | 37020 ft | 491 kts | 65° |
| 2026-05-05 16:07 | 54.85342 | 85.32444 | 37023 ft | 482 kts | 54° |
| 2026-05-05 16:07 | 54.87063 | 85.37291 | 37024 ft | 475 kts | 48° |
| 2026-05-05 16:08 | 54.91197 | 85.46052 | 37017 ft | 465 kts | 39° |
| 2026-05-05 16:08 | 54.95684 | 85.54027 | 37017 ft | 463 kts | 37° |
| 2026-05-05 16:09 | 55.00249 | 85.61965 | 37017 ft | 463 kts | 37° |
| 2026-05-05 16:09 | 55.04742 | 85.69912 | 37012 ft | 467 kts | 38° |
| 2026-05-05 16:10 | 55.09256 | 85.78049 | 37016 ft | 465 kts | 39° |
| 2026-05-05 16:10 | 55.13667 | 85.86096 | 37022 ft | 466 kts | 39° |
| 2026-05-05 16:11 | 55.18124 | 85.94278 | 37017 ft | 457 kts | 39° |
| 2026-05-05 16:12 | 55.26481 | 86.10472 | 36997 ft | 458 kts | 47° |
| 2026-05-05 16:12 | 55.29640 | 86.20320 | 37011 ft | 468 kts | 58° |
| 2026-05-05 16:13 | 55.33489 | 86.36155 | 37019 ft | 469 kts | 60° |
| 2026-05-05 16:13 | 55.35960 | 86.46679 | 37012 ft | 471 kts | 60° |
| 2026-05-05 16:14 | 55.40962 | 86.67714 | 37021 ft | 462 kts | 60° |
| 2026-05-05 16:15 | 55.43356 | 86.77801 | 37005 ft | 440 kts | 60° |
| 2026-05-05 16:15 | 55.45704 | 86.87606 | 37012 ft | 448 kts | 60° |
| 2026-05-05 16:16 | 55.50500 | 87.07752 | 37010 ft | 446 kts | 60° |
| 2026-05-05 16:17 | 55.54082 | 87.22948 | 37020 ft | 445 kts | 60° |
| 2026-05-05 16:18 | 55.57642 | 87.38162 | 37008 ft | 445 kts | 60° |
| 2026-05-05 16:19 | 55.61182 | 87.53402 | 37015 ft | 443 kts | 60° |
| 2026-05-05 16:19 | 55.64682 | 87.68563 | 37021 ft | 445 kts | 61° |
| 2026-05-05 16:20 | 55.69322 | 87.88827 | 37029 ft | 446 kts | 61° |
| 2026-05-05 16:22 | 55.75054 | 88.14172 | 37021 ft | 438 kts | 61° |
| 2026-05-05 16:23 | 55.79563 | 88.34280 | 37014 ft | 440 kts | 61° |
| 2026-05-05 16:23 | 55.82906 | 88.49323 | 37005 ft | 438 kts | 61° |
| 2026-05-05 16:24 | 55.85148 | 88.59484 | 37009 ft | 438 kts | 61° |
| 2026-05-05 16:25 | 55.88490 | 88.74676 | 37013 ft | 448 kts | 62° |
| 2026-05-05 16:25 | 55.90780 | 88.85136 | 36709 ft | 463 kts | 62° |
| 2026-05-05 16:25 | 55.91941 | 88.90478 | 36341 ft | 459 kts | 62° |
| 2026-05-05 16:26 | 55.94058 | 89.00304 | 35560 ft | 455 kts | 61° |
| 2026-05-05 16:26 | 55.96292 | 89.10701 | 34434 ft | 455 kts | 60° |
| 2026-05-05 16:27 | 55.97398 | 89.15901 | 33818 ft | 448 kts | 60° |
| 2026-05-05 16:27 | 55.98497 | 89.21112 | 33259 ft | 438 kts | 60° |
| 2026-05-05 16:27 | 55.99548 | 89.26117 | 32736 ft | 430 kts | 59° |
| 2026-05-05 16:27 | 56.00585 | 89.31067 | 32217 ft | 421 kts | 59° |
| 2026-05-05 16:28 | 56.01610 | 89.35959 | 31710 ft | 415 kts | 58° |
| 2026-05-05 16:28 | 56.02287 | 89.39168 | 31375 ft | 419 kts | 58° |
| 2026-05-05 16:29 | 56.07874 | 89.65788 | 29842 ft | 415 kts | 59° |
| 2026-05-05 16:29 | 56.08894 | 89.70649 | 29617 ft | 419 kts | 59° |
| 2026-05-05 16:30 | 56.09911 | 89.75545 | 29360 ft | 415 kts | 59° |
| 2026-05-05 16:30 | 56.10883 | 89.80278 | 29108 ft | 409 kts | 60° |
| 2026-05-05 16:30 | 56.11862 | 89.85067 | 28851 ft | 406 kts | 59° |
| 2026-05-05 16:30 | 56.12844 | 89.89855 | 28593 ft | 407 kts | 60° |
| 2026-05-05 16:31 | 56.13822 | 89.94617 | 28336 ft | 406 kts | 60° |
| 2026-05-05 16:31 | 56.14799 | 89.99384 | 28081 ft | 404 kts | 60° |
| 2026-05-05 16:31 | 56.15738 | 90.03987 | 27833 ft | 401 kts | 60° |
| 2026-05-05 16:31 | 56.16686 | 90.08650 | 27577 ft | 399 kts | 61° |
| 2026-05-05 16:32 | 56.17634 | 90.13313 | 27322 ft | 397 kts | 61° |
| 2026-05-05 16:32 | 56.18577 | 90.17968 | 27070 ft | 396 kts | 62° |
| 2026-05-05 16:32 | 56.19201 | 90.21049 | 26903 ft | 394 kts | 62° |
| 2026-05-05 16:32 | 56.20432 | 90.27149 | 26563 ft | 392 kts | 62° |
| 2026-05-05 16:33 | 56.21357 | 90.31745 | 26309 ft | 389 kts | 62° |
| 2026-05-05 16:33 | 56.22275 | 90.36316 | 26053 ft | 387 kts | 62° |
| 2026-05-05 16:33 | 56.22871 | 90.39291 | 25886 ft | 387 kts | 63° |
| 2026-05-05 16:33 | 56.24086 | 90.45359 | 25553 ft | 384 kts | 63° |
| 2026-05-05 16:34 | 56.24687 | 90.48375 | 25385 ft | 382 kts | 63° |
| 2026-05-05 16:34 | 56.25872 | 90.54336 | 25048 ft | 380 kts | 64° |
| 2026-05-05 16:34 | 56.26683 | 90.58852 | 24795 ft | 380 kts | 68° |
| 2026-05-05 16:34 | 56.27255 | 90.63467 | 24543 ft | 381 kts | 76° |
| 2026-05-05 16:35 | 56.27536 | 90.68054 | 24294 ft | 381 kts | 82° |
| 2026-05-05 16:35 | 56.27676 | 90.72838 | 24043 ft | 380 kts | 84° |
| 2026-05-05 16:35 | 56.27755 | 90.77563 | 23782 ft | 377 kts | 85° |
| 2026-05-05 16:35 | 56.27821 | 90.82269 | 23515 ft | 375 kts | 85° |
| 2026-05-05 16:36 | 56.27892 | 90.86945 | 23251 ft | 374 kts | 85° |
| 2026-05-05 16:36 | 56.27972 | 90.91622 | 22990 ft | 372 kts | 85° |
| 2026-05-05 16:36 | 56.28057 | 90.96259 | 22724 ft | 370 kts | 85° |
| 2026-05-05 16:36 | 56.28146 | 91.00851 | 22462 ft | 369 kts | 85° |
| 2026-05-05 16:37 | 56.28238 | 91.05422 | 22196 ft | 367 kts | 85° |
| 2026-05-05 16:37 | 56.28321 | 91.09973 | 21934 ft | 366 kts | 86° |
| 2026-05-05 16:37 | 56.28307 | 91.13248 | 21691 ft | 363 kts | 90° |
| 2026-05-05 16:37 | 56.28112 | 91.17700 | 21256 ft | 361 kts | 94° |
| 2026-05-05 16:38 | 56.27783 | 91.22180 | 20800 ft | 359 kts | 96° |
| 2026-05-05 16:38 | 56.27476 | 91.25809 | 20429 ft | 357 kts | 97° |
| 2026-05-05 16:38 | 56.27094 | 91.30185 | 19980 ft | 354 kts | 97° |
| 2026-05-05 16:38 | 56.26715 | 91.34539 | 19536 ft | 351 kts | 97° |
| 2026-05-05 16:39 | 56.26341 | 91.38874 | 19105 ft | 348 kts | 97° |
| 2026-05-05 16:39 | 56.25973 | 91.43176 | 18658 ft | 346 kts | 97° |
| 2026-05-05 16:39 | 56.25612 | 91.47433 | 18221 ft | 343 kts | 97° |
| 2026-05-05 16:39 | 56.25255 | 91.51661 | 17785 ft | 341 kts | 97° |
| 2026-05-05 16:40 | 56.24904 | 91.55828 | 17362 ft | 339 kts | 97° |
| 2026-05-05 16:40 | 56.24552 | 91.60026 | 16931 ft | 337 kts | 97° |
| 2026-05-05 16:40 | 56.24203 | 91.64168 | 16507 ft | 335 kts | 97° |
| 2026-05-05 16:40 | 56.23776 | 91.68276 | 16085 ft | 333 kts | 103° |
| 2026-05-05 16:41 | 56.23132 | 91.72250 | 15660 ft | 331 kts | 109° |
| 2026-05-05 16:41 | 56.22317 | 91.76073 | 15248 ft | 328 kts | 112° |
| 2026-05-05 16:41 | 56.21446 | 91.79821 | 14821 ft | 326 kts | 113° |
| 2026-05-05 16:41 | 56.20566 | 91.83571 | 14410 ft | 322 kts | 113° |
| 2026-05-05 16:42 | 56.19711 | 91.87260 | 13996 ft | 319 kts | 113° |
| 2026-05-05 16:42 | 56.18959 | 91.90549 | 13637 ft | 320 kts | 113° |
| 2026-05-05 16:42 | 56.18171 | 91.94026 | 13253 ft | 323 kts | 113° |
| 2026-05-05 16:42 | 56.17339 | 91.97718 | 12833 ft | 318 kts | 113° |
| 2026-05-05 16:43 | 56.16515 | 92.01375 | 12423 ft | 313 kts | 113° |
| 2026-05-05 16:43 | 56.15702 | 92.04976 | 12035 ft | 308 kts | 114° |
| 2026-05-05 16:43 | 56.14908 | 92.08482 | 11638 ft | 304 kts | 114° |
| 2026-05-05 16:43 | 56.14114 | 92.11984 | 11223 ft | 301 kts | 114° |
| 2026-05-05 16:44 | 56.13321 | 92.15475 | 10852 ft | 305 kts | 114° |
| 2026-05-05 16:44 | 56.12528 | 92.18979 | 10444 ft | 303 kts | 114° |
| 2026-05-05 16:44 | 56.11745 | 92.22449 | 10114 ft | 298 kts | 114° |
| 2026-05-05 16:44 | 56.10975 | 92.25839 | 9917 ft | 289 kts | 114° |
| 2026-05-05 16:45 | 56.10222 | 92.29137 | 9539 ft | 286 kts | 115° |
| 2026-05-05 16:45 | 56.09593 | 92.31878 | 9234 ft | 281 kts | 115° |
| 2026-05-05 16:45 | 56.08855 | 92.35097 | 8848 ft | 271 kts | 115° |
| 2026-05-05 16:45 | 56.08161 | 92.38129 | 8510 ft | 263 kts | 115° |
| 2026-05-05 16:46 | 56.07473 | 92.41132 | 8133 ft | 258 kts | 115° |
| 2026-05-05 16:46 | 56.06790 | 92.44107 | 7824 ft | 251 kts | 115° |
| 2026-05-05 16:46 | 56.06139 | 92.46939 | 7483 ft | 245 kts | 115° |
| 2026-05-05 16:46 | 56.05502 | 92.49715 | 7187 ft | 238 kts | 115° |
| 2026-05-05 16:47 | 56.04873 | 92.52416 | 6904 ft | 232 kts | 116° |
| 2026-05-05 16:47 | 56.04246 | 92.55048 | 6610 ft | 226 kts | 116° |
| 2026-05-05 16:47 | 56.03639 | 92.57574 | 6356 ft | 222 kts | 116° |
| 2026-05-05 16:47 | 56.03029 | 92.60106 | 6062 ft | 219 kts | 116° |
| 2026-05-05 16:48 | 56.02441 | 92.62564 | 5840 ft | 211 kts | 116° |
| 2026-05-05 16:48 | 56.01883 | 92.64906 | 5726 ft | 198 kts | 116° |
| 2026-05-05 16:48 | 56.01358 | 92.67094 | 5636 ft | 186 kts | 117° |
| 2026-05-05 16:48 | 56.00870 | 92.69162 | 5541 ft | 176 kts | 115° |
| 2026-05-05 16:49 | 56.00676 | 92.71265 | 5418 ft | 172 kts | 85° |
| 2026-05-05 16:49 | 56.01120 | 92.73231 | 5309 ft | 173 kts | 57° |
| 2026-05-05 16:49 | 56.01937 | 92.74796 | 5153 ft | 172 kts | 34° |
| 2026-05-05 16:49 | 56.03026 | 92.75698 | 4962 ft | 172 kts | 18° |
| 2026-05-05 16:50 | 56.04134 | 92.76468 | 4768 ft | 169 kts | 21° |
| 2026-05-05 16:50 | 56.05193 | 92.77275 | 4594 ft | 161 kts | 21° |
| 2026-05-05 16:50 | 56.06222 | 92.78073 | 4422 ft | 163 kts | 21° |
| 2026-05-05 16:50 | 56.07264 | 92.78877 | 4264 ft | 162 kts | 21° |
| 2026-05-05 16:51 | 56.08314 | 92.79592 | 4098 ft | 160 kts | 10° |
| 2026-05-05 16:51 | 56.09383 | 92.79434 | 3951 ft | 152 kts | 333° |
| 2026-05-05 16:51 | 56.10224 | 92.78389 | 3835 ft | 145 kts | 313° |
| 2026-05-05 16:51 | 56.10783 | 92.76924 | 3716 ft | 140 kts | 289° |
| 2026-05-05 16:52 | 56.11120 | 92.75288 | 3585 ft | 141 kts | 289° |
| 2026-05-05 16:52 | 56.11491 | 92.73676 | 3466 ft | 140 kts | 289° |
| 2026-05-05 16:52 | 56.11857 | 92.72069 | 3400 ft | 141 kts | 289° |
| 2026-05-05 16:52 | 56.12239 | 92.70431 | 3188 ft | 141 kts | 290° |
| 2026-05-05 16:53 | 56.12615 | 92.68846 | 2994 ft | 137 kts | 290° |
| 2026-05-05 16:53 | 56.12988 | 92.67278 | 2801 ft | 137 kts | 289° |
| 2026-05-05 16:53 | 56.13361 | 92.65713 | 2616 ft | 135 kts | 289° |
| 2026-05-05 16:53 | 56.13729 | 92.64172 | 2434 ft | 134 kts | 289° |
| 2026-05-05 16:54 | 56.13975 | 92.63142 | 2307 ft | 134 kts | 289° |
| 2026-05-05 16:54 | 56.14462 | 92.61098 | 2060 ft | 134 kts | 290° |
| 2026-05-05 16:54 | 56.14833 | 92.59560 | 1881 ft | 134 kts | 290° |
| 2026-05-05 16:54 | 56.15078 | 92.58545 | 1753 ft | 134 kts | 291° |
| 2026-05-05 16:55 | 56.15459 | 92.57014 | 1542 ft | 134 kts | 291° |
| 2026-05-05 16:55 | 56.15942 | 92.54969 | 1308 ft | 133 kts | 291° |
| 2026-05-05 16:55 | 56.16320 | 92.53423 | 1111 ft | 134 kts | 292° |
| 2026-05-05 16:55 | 56.16681 | 92.51907 | 968 ft | 129 kts | 291° |
| 2026-05-05 16:56 | 56.16928 | 92.50836 | 947 ft | 106 kts | 293° |
| 2026-05-05 16:56 | 56.17143 | 92.49948 | 947 ft | 61 kts | 295° |
| 2026-05-05 16:56 | 56.17310 | 92.49259 | 947 ft | 57 kts | 293° |
| 2026-05-05 16:56 | 56.17480 | 92.48721 | 947 ft | 46 kts | 321° |
| 2026-05-05 16:57 | 56.17618 | 92.48536 | 947 ft | 0 kts | 324° |
| 2026-05-05 16:57 | 56.17636 | 92.48512 | 947 ft | 7 kts | 324° |
| 2026-05-05 16:57 | 56.17703 | 92.48424 | 947 ft | 15 kts | 324° |
| 2026-05-05 16:58 | 56.17822 | 92.48438 | 947 ft | 17 kts | 24° |
| 2026-05-05 16:58 | 56.17843 | 92.48624 | 947 ft | 16 kts | 95° |
| 2026-05-05 16:58 | 56.17857 | 92.48686 | 947 ft | 16 kts | 45° |